createdAt,value
2022-08-03T00:00:26.193Z,20.50
2022-08-03T00:02:52.973Z,20.50
2022-08-03T00:05:19.840Z,20.50
2022-08-03T00:07:46.513Z,20.50
2022-08-03T00:10:15.390Z,20.50
2022-08-03T00:12:42.093Z,20.50
2022-08-03T00:15:11.347Z,20.40
2022-08-03T00:17:52.949Z,20.30
2022-08-03T00:20:21.178Z,20.20
2022-08-03T00:22:47.864Z,20.20
2022-08-03T00:25:14.537Z,20.20
2022-08-03T00:27:41.109Z,20.20
2022-08-03T00:30:08.407Z,20.20
2022-08-03T00:32:35.015Z,20.10
2022-08-03T00:35:08.030Z,20.10
2022-08-03T00:37:40.990Z,20.10
2022-08-03T00:40:12.875Z,20.00
2022-08-03T00:43:00.133Z,20.10
2022-08-03T00:45:30.895Z,20.10
2022-08-03T00:47:58.368Z,20.10
2022-08-03T00:50:27.722Z,20.10
2022-08-03T00:52:56.552Z,20.10
2022-08-03T00:55:23.790Z,20.10
2022-08-03T00:57:50.517Z,20.10
2022-08-03T01:00:20.736Z,20.00
2022-08-03T01:02:49.804Z,20.00
2022-08-03T01:05:16.771Z,20.00
2022-08-03T01:07:49.318Z,20.10
2022-08-03T01:10:50.302Z,20.00
2022-08-03T01:14:01.546Z,19.90
2022-08-03T01:16:22.940Z,19.80
2022-08-03T01:19:46.873Z,19.70
2022-08-03T01:22:23.142Z,19.60
2022-08-03T01:25:09.921Z,19.60
2022-08-03T01:27:58.000Z,19.60
2022-08-03T01:30:31.183Z,19.60
2022-08-03T01:33:03.559Z,19.50
2022-08-03T01:35:38.730Z,19.50
2022-08-03T01:38:28.708Z,19.60
2022-08-03T01:40:57.033Z,19.50
2022-08-03T01:43:55.266Z,19.50
2022-08-03T01:46:17.104Z,19.50
2022-08-03T01:48:46.067Z,19.60
2022-08-03T01:51:15.543Z,19.60
2022-08-03T01:53:42.864Z,19.60
2022-08-03T01:56:10.937Z,19.60
2022-08-03T01:58:38.451Z,19.50
2022-08-03T02:01:06.875Z,19.40
2022-08-03T02:03:37.904Z,19.40
2022-08-03T02:07:00.837Z,19.40
2022-08-03T02:09:19.883Z,19.30
2022-08-03T02:11:47.277Z,19.30
2022-08-03T02:14:15.831Z,19.30
2022-08-03T02:16:45.637Z,19.20
2022-08-03T02:19:13.576Z,19.30
2022-08-03T02:21:57.249Z,19.30
2022-08-03T02:24:28.668Z,19.30
2022-08-03T02:26:56.973Z,19.30
2022-08-03T02:29:39.315Z,19.30
2022-08-03T02:32:14.277Z,19.30
2022-08-03T02:34:46.072Z,19.40
2022-08-03T02:37:14.745Z,19.30
2022-08-03T02:39:42.895Z,19.30
2022-08-03T02:42:12.197Z,19.20
2022-08-03T02:44:43.675Z,19.20
2022-08-03T02:47:12.449Z,19.10
2022-08-03T02:49:50.335Z,19.10
2022-08-03T02:52:20.034Z,19.10
2022-08-03T02:54:48.731Z,19.10
2022-08-03T02:57:16.631Z,19.10
2022-08-03T02:59:44.471Z,19.10
2022-08-03T03:02:12.173Z,19.10
2022-08-03T03:04:41.202Z,19.00
2022-08-03T03:07:26.727Z,18.90
2022-08-03T03:09:56.236Z,18.80
2022-08-03T03:12:23.565Z,18.80
2022-08-03T03:14:50.465Z,18.80
2022-08-03T03:17:18.498Z,18.80
2022-08-03T03:19:45.977Z,18.80
2022-08-03T03:22:13.204Z,18.80
2022-08-03T03:24:41.487Z,18.80
2022-08-03T03:27:08.719Z,18.70
2022-08-03T03:29:39.256Z,18.70
2022-08-03T03:32:12.588Z,18.60
2022-08-03T03:34:39.635Z,18.60
2022-08-03T03:37:06.286Z,18.60
2022-08-03T03:39:33.107Z,18.50
2022-08-03T03:42:00.689Z,18.50
2022-08-03T03:44:29.030Z,18.50
2022-08-03T03:46:57.856Z,18.50
2022-08-03T03:49:24.916Z,18.40
2022-08-03T03:51:55.468Z,18.40
2022-08-03T03:54:22.226Z,18.40
2022-08-03T03:56:52.526Z,18.30
2022-08-03T03:59:19.201Z,18.40
2022-08-03T04:01:46.186Z,18.50
2022-08-03T04:04:31.215Z,18.50
2022-08-03T04:07:16.629Z,18.50
2022-08-03T04:10:14.815Z,18.50
2022-08-03T04:12:50.203Z,18.50
2022-08-03T04:15:20.750Z,18.40
2022-08-03T04:17:50.181Z,18.30
2022-08-03T04:20:20.526Z,18.20
2022-08-03T04:22:52.760Z,18.30
2022-08-03T04:25:23.332Z,18.20
2022-08-03T04:28:07.797Z,18.30
2022-08-03T04:30:39.871Z,18.30
2022-08-03T04:33:07.227Z,18.30
2022-08-03T04:35:59.815Z,18.20
2022-08-03T04:38:24.721Z,18.20
2022-08-03T04:40:52.706Z,18.20
2022-08-03T04:43:21.127Z,18.30
2022-08-03T04:45:49.497Z,18.30
2022-08-03T04:48:16.722Z,18.40
2022-08-03T04:50:43.525Z,18.40
2022-08-03T04:53:10.190Z,18.50
2022-08-03T04:55:36.870Z,18.60
2022-08-03T04:58:04.313Z,18.70
2022-08-03T05:00:30.969Z,18.70
2022-08-03T05:02:58.309Z,18.80
2022-08-03T05:05:25.198Z,18.90
2022-08-03T05:07:51.885Z,18.90
2022-08-03T05:10:20.047Z,19.00
2022-08-03T05:12:48.233Z,19.00
2022-08-03T05:15:15.823Z,19.00
2022-08-03T05:17:42.752Z,19.10
2022-08-03T05:20:10.443Z,19.10
2022-08-03T05:22:37.042Z,19.10
2022-08-03T05:25:04.083Z,19.20
2022-08-03T05:27:30.908Z,19.30
2022-08-03T05:30:31.048Z,19.30
2022-08-03T05:32:44.263Z,19.30
2022-08-03T05:36:01.088Z,19.30
2022-08-03T05:37:57.569Z,19.40
2022-08-03T05:40:24.802Z,19.50
2022-08-03T05:42:53.644Z,19.60
2022-08-03T05:45:21.650Z,19.70
2022-08-03T05:47:50.953Z,19.70
2022-08-03T05:50:19.308Z,19.80
2022-08-03T05:52:46.112Z,19.80
2022-08-03T05:55:13.813Z,19.90
2022-08-03T05:57:40.719Z,20.10
2022-08-03T06:00:11.257Z,20.30
2022-08-03T06:02:39.860Z,20.50
2022-08-03T06:05:07.166Z,20.70
2022-08-03T06:07:33.751Z,20.80
2022-08-03T06:10:37.409Z,20.90
2022-08-03T06:12:50.137Z,21.00
2022-08-03T06:15:16.861Z,21.10
2022-08-03T06:17:50.851Z,21.30
2022-08-03T06:20:21.409Z,21.40
2022-08-03T06:23:00.473Z,21.50
2022-08-03T06:25:28.943Z,21.60
2022-08-03T06:27:55.707Z,21.80
2022-08-03T06:30:22.484Z,22.00
2022-08-03T06:32:52.063Z,22.20
2022-08-03T06:35:19.153Z,22.40
2022-08-03T06:37:48.070Z,22.60
2022-08-03T06:40:16.771Z,22.80
2022-08-03T06:42:50.889Z,23.00
2022-08-03T06:45:18.068Z,23.20
2022-08-03T06:47:44.709Z,23.30
2022-08-03T06:50:16.298Z,23.40
2022-08-03T06:52:43.992Z,23.50
2022-08-03T06:55:11.370Z,23.70
2022-08-03T06:57:38.007Z,23.80
2022-08-03T07:00:09.498Z,24.00
2022-08-03T07:02:39.718Z,24.20
2022-08-03T07:05:07.688Z,24.30
2022-08-03T07:07:34.346Z,24.50
2022-08-03T07:10:02.316Z,24.70
2022-08-03T07:12:30.247Z,24.90
2022-08-03T07:15:02.655Z,25.00
2022-08-03T07:17:31.680Z,25.20
2022-08-03T07:19:59.080Z,25.30
2022-08-03T07:22:25.779Z,25.50
2022-08-03T07:24:52.346Z,25.60
2022-08-03T07:27:19.115Z,25.70
2022-08-03T07:29:45.672Z,25.90
2022-08-03T07:32:12.287Z,26.10
2022-08-03T07:34:38.872Z,26.40
2022-08-03T07:37:05.473Z,26.50
2022-08-03T07:39:32.052Z,26.60
2022-08-03T07:41:58.651Z,26.90
2022-08-03T07:44:25.217Z,27.00
2022-08-03T07:46:51.952Z,27.10
2022-08-03T07:49:18.954Z,27.30
2022-08-03T07:51:45.543Z,27.50
2022-08-03T07:54:12.157Z,27.60
2022-08-03T07:56:39.192Z,27.80
2022-08-03T07:59:05.844Z,28.00
2022-08-03T08:01:35.858Z,28.30
2022-08-03T08:04:02.707Z,28.50
2022-08-03T08:06:29.739Z,28.60
2022-08-03T08:09:01.579Z,28.90
2022-08-03T08:11:28.204Z,29.30
2022-08-03T08:13:54.886Z,29.70
2022-08-03T08:16:21.412Z,30.10
2022-08-03T08:18:48.034Z,30.40
2022-08-03T08:21:14.625Z,30.60
2022-08-03T08:23:43.238Z,30.90
2022-08-03T08:26:11.087Z,31.30
2022-08-03T08:28:37.910Z,31.70
2022-08-03T08:31:04.508Z,32.00
2022-08-03T08:36:18.959Z,33.00
2022-08-03T08:38:45.672Z,34.40
2022-08-03T08:41:14.896Z,36.40
2022-08-03T08:43:42.299Z,39.20
2022-08-03T08:46:12.970Z,41.00
2022-08-03T08:48:51.308Z,42.40
2022-08-03T08:51:20.608Z,43.10
2022-08-03T08:53:52.706Z,44.50
2022-08-03T08:56:41.463Z,45.80
2022-08-03T08:59:47.745Z,45.80
2022-08-03T09:02:16.060Z,45.10
2022-08-03T09:04:43.078Z,45.50
2022-08-03T09:07:19.546Z,45.90
2022-08-03T09:10:11.310Z,46.30
2022-08-03T09:12:42.168Z,46.70
2022-08-03T09:15:18.618Z,47.00
2022-08-03T09:17:48.956Z,46.90
2022-08-03T09:20:18.409Z,47.10
2022-08-03T09:23:00.613Z,46.60
2022-08-03T09:25:36.215Z,46.60
2022-08-03T09:28:12.617Z,47.20
2022-08-03T09:30:44.089Z,47.50
2022-08-03T09:33:12.908Z,47.50
2022-08-03T09:35:53.678Z,47.50
2022-08-03T09:38:26.389Z,48.10
2022-08-03T09:40:59.008Z,48.40
2022-08-03T09:43:27.791Z,48.20
2022-08-03T09:46:04.141Z,48.20
2022-08-03T09:48:34.597Z,47.80
2022-08-03T09:51:13.075Z,48.50
2022-08-03T09:53:58.614Z,48.50
2022-08-03T09:56:41.240Z,48.50
2022-08-03T09:59:09.277Z,48.60
2022-08-03T10:01:37.353Z,48.70
2022-08-03T10:04:05.283Z,48.00
2022-08-03T10:06:32.466Z,48.40
2022-08-03T10:09:17.573Z,48.90
2022-08-03T10:11:44.618Z,48.60
2022-08-03T10:14:19.192Z,48.30
2022-08-03T10:16:47.463Z,48.40
2022-08-03T10:19:15.496Z,48.30
2022-08-03T10:21:49.271Z,48.50
2022-08-03T10:24:20.067Z,48.50
2022-08-03T10:26:49.774Z,48.40
2022-08-03T10:29:28.557Z,48.20
2022-08-03T10:31:58.984Z,47.70
2022-08-03T10:34:35.239Z,48.10
2022-08-03T10:37:06.817Z,47.60
2022-08-03T10:39:33.838Z,48.30
2022-08-03T10:42:02.542Z,48.70
2022-08-03T10:44:37.135Z,49.20
2022-08-03T10:47:04.621Z,49.60
2022-08-03T10:49:34.347Z,49.60
2022-08-03T10:52:31.396Z,49.90
2022-08-03T10:55:10.021Z,50.20
2022-08-03T10:57:43.515Z,50.10
2022-08-03T11:00:14.261Z,49.40
2022-08-03T11:03:03.104Z,49.00
2022-08-03T11:05:31.557Z,48.40
2022-08-03T11:08:27.962Z,47.80
2022-08-03T11:11:03.268Z,47.40
2022-08-03T11:13:33.405Z,47.60
2022-08-03T11:16:05.866Z,47.40
2022-08-03T11:18:34.049Z,47.60
2022-08-03T11:21:00.924Z,47.70
2022-08-03T11:24:03.338Z,47.50
2022-08-03T11:26:33.011Z,47.20
2022-08-03T11:29:18.480Z,48.00
2022-08-03T11:31:50.442Z,48.30
2022-08-03T11:34:18.100Z,48.70
2022-08-03T11:37:21.397Z,48.20
2022-08-03T11:39:51.130Z,48.00
2022-08-03T11:42:23.851Z,47.70
2022-08-03T11:44:51.495Z,47.30
2022-08-03T11:47:20.191Z,47.60
2022-08-03T11:49:48.596Z,47.60
2022-08-03T11:52:17.387Z,47.80
2022-08-03T11:54:44.301Z,48.00
2022-08-03T11:57:11.321Z,47.90
2022-08-03T11:59:38.782Z,47.60
2022-08-03T12:02:09.903Z,47.30
2022-08-03T12:04:53.746Z,47.00
2022-08-03T12:07:25.073Z,46.30
2022-08-03T12:10:12.876Z,45.00
2022-08-03T12:12:44.563Z,43.50
2022-08-03T12:15:13.336Z,42.20
2022-08-03T12:17:41.502Z,40.60
2022-08-03T12:20:09.531Z,39.80
2022-08-03T12:22:39.728Z,39.10
2022-08-03T12:25:08.848Z,38.80
2022-08-03T12:27:36.071Z,38.30
2022-08-03T12:30:03.895Z,37.40
2022-08-03T12:32:31.219Z,37.20
2022-08-03T12:35:01.292Z,37.00
2022-08-03T12:37:28.758Z,36.90
2022-08-03T12:40:05.263Z,36.80
2022-08-03T12:42:37.761Z,36.70
2022-08-03T12:45:23.843Z,36.70
2022-08-03T12:48:01.735Z,36.60
2022-08-03T12:50:34.041Z,36.50
2022-08-03T12:53:03.001Z,36.40
2022-08-03T12:55:57.408Z,36.20
2022-08-03T12:58:33.513Z,36.30
2022-08-03T13:01:00.509Z,36.40
2022-08-03T13:03:39.241Z,35.90
2022-08-03T13:06:13.761Z,35.70
2022-08-03T13:08:40.971Z,35.80
2022-08-03T13:11:52.584Z,35.90
2022-08-03T13:14:13.604Z,36.10
2022-08-03T13:16:46.414Z,36.30
2022-08-03T13:19:15.723Z,36.40
2022-08-03T13:21:53.577Z,36.30
2022-08-03T13:24:30.621Z,36.30
2022-08-03T13:26:58.676Z,36.10
2022-08-03T13:29:25.325Z,36.00
2022-08-03T13:31:52.056Z,36.20
2022-08-03T13:34:23.182Z,36.10
2022-08-03T13:37:08.290Z,36.20
2022-08-03T13:39:35.684Z,36.30
2022-08-03T13:42:22.348Z,36.20
2022-08-03T13:44:48.997Z,36.00
2022-08-03T13:47:16.108Z,35.80
2022-08-03T13:49:42.836Z,35.70
2022-08-03T13:52:27.803Z,35.40
2022-08-03T13:54:54.520Z,35.10
2022-08-03T13:58:04.380Z,35.00
2022-08-03T14:00:08.808Z,35.00
2022-08-03T14:02:35.566Z,34.80
2022-08-03T14:05:02.281Z,34.90
2022-08-03T14:07:28.900Z,35.00
2022-08-03T14:09:55.565Z,35.20
2022-08-03T14:12:22.276Z,35.30
2022-08-03T14:14:48.962Z,35.40
2022-08-03T14:17:16.324Z,35.40
2022-08-03T14:19:53.403Z,35.30
2022-08-03T14:22:21.047Z,35.20
2022-08-03T14:24:47.674Z,35.10
2022-08-03T14:27:16.282Z,35.10
2022-08-03T14:29:42.986Z,35.00
2022-08-03T14:32:13.256Z,35.10
2022-08-03T14:34:40.958Z,35.10
2022-08-03T14:37:08.160Z,34.90
2022-08-03T14:42:21.645Z,34.80
2022-08-03T14:44:48.382Z,34.90
2022-08-03T14:47:15.233Z,35.00
2022-08-03T14:50:38.635Z,35.10
2022-08-03T14:52:29.537Z,35.00
2022-08-03T14:54:56.235Z,35.10
2022-08-03T14:57:23.201Z,35.10
2022-08-03T14:59:55.809Z,35.00
2022-08-03T15:02:24.922Z,35.00
2022-08-03T15:04:52.484Z,35.00
2022-08-03T15:07:20.443Z,34.90
2022-08-03T15:09:47.566Z,34.80
2022-08-03T15:12:14.115Z,34.70
2022-08-03T15:14:40.921Z,34.80
2022-08-03T15:17:07.845Z,34.80
2022-08-03T15:20:01.409Z,34.80
2022-08-03T15:22:25.204Z,34.70
2022-08-03T15:26:03.787Z,34.70
2022-08-03T15:28:02.810Z,34.70
2022-08-03T15:30:31.375Z,34.70
2022-08-03T15:32:57.953Z,34.50
2022-08-03T15:35:24.629Z,34.40
2022-08-03T15:37:51.323Z,34.50
2022-08-03T15:40:17.909Z,34.50
2022-08-03T15:42:44.562Z,34.50
2022-08-03T15:45:11.608Z,34.40
2022-08-03T15:47:39.556Z,34.30
2022-08-03T15:50:09.664Z,34.20
2022-08-03T15:52:36.583Z,34.20
2022-08-03T15:55:03.914Z,34.10
2022-08-03T15:57:30.588Z,34.10
2022-08-03T15:59:57.271Z,34.00
2022-08-03T16:02:23.896Z,34.00
2022-08-03T16:04:50.614Z,33.90
2022-08-03T16:07:37.193Z,33.90
2022-08-03T16:10:04.408Z,33.90
2022-08-03T16:12:30.968Z,33.80
2022-08-03T16:14:59.162Z,33.80
2022-08-03T16:17:25.966Z,33.90
2022-08-03T16:19:54.882Z,33.80
2022-08-03T16:22:23.060Z,33.90
2022-08-03T16:24:51.267Z,33.90
2022-08-03T16:27:36.667Z,33.90
2022-08-03T16:30:06.021Z,33.90
2022-08-03T16:32:32.830Z,33.80
2022-08-03T16:35:00.402Z,33.90
2022-08-03T16:37:56.066Z,33.80
2022-08-03T16:40:17.351Z,33.90
2022-08-03T16:42:46.920Z,33.80
2022-08-03T16:45:14.037Z,33.60
2022-08-03T16:47:40.831Z,33.60
2022-08-03T16:50:14.240Z,33.50
2022-08-03T16:52:46.968Z,33.50
2022-08-03T16:55:15.938Z,33.50
2022-08-03T16:58:02.820Z,33.40
2022-08-03T17:00:34.362Z,33.40
2022-08-03T17:03:19.031Z,33.40
2022-08-03T17:05:49.603Z,33.40
2022-08-03T17:08:18.999Z,33.40
2022-08-03T17:10:53.008Z,33.40
2022-08-03T17:13:22.584Z,33.30
2022-08-03T17:16:00.766Z,33.20
2022-08-03T17:18:34.039Z,33.20
2022-08-03T17:21:05.684Z,33.20
2022-08-03T17:24:12.030Z,33.10
2022-08-03T17:26:46.281Z,33.10
2022-08-03T17:29:23.206Z,33.00
2022-08-03T17:31:53.053Z,32.90
2022-08-03T17:34:20.809Z,32.80
2022-08-03T17:37:27.132Z,32.70
2022-08-03T17:39:58.330Z,32.70
2022-08-03T17:42:39.148Z,32.60
2022-08-03T17:45:07.377Z,32.50
2022-08-03T17:47:42.820Z,32.40
2022-08-03T17:50:24.701Z,32.40
2022-08-03T17:53:07.277Z,32.30
2022-08-03T17:55:56.629Z,32.20
2022-08-03T17:58:53.432Z,32.20
2022-08-03T18:02:06.474Z,32.00
2022-08-03T18:04:55.272Z,32.00
2022-08-03T18:07:24.833Z,31.90
2022-08-03T18:10:11.399Z,31.80
2022-08-03T18:12:51.951Z,31.70
2022-08-03T18:15:30.310Z,31.60
2022-08-03T18:18:10.750Z,31.60
2022-08-03T18:20:42.101Z,31.50
2022-08-03T18:23:11.530Z,31.40
2022-08-03T18:25:57.933Z,31.30
2022-08-03T18:28:27.314Z,31.30
2022-08-03T18:30:55.522Z,31.10
2022-08-03T18:34:17.564Z,31.00
2022-08-03T18:36:11.641Z,30.90
2022-08-03T18:38:46.627Z,30.80
2022-08-03T18:41:17.564Z,30.70
2022-08-03T18:44:08.066Z,30.60
2022-08-03T18:47:15.987Z,30.50
2022-08-03T18:50:12.412Z,30.40
2022-08-03T18:53:02.524Z,30.20
2022-08-03T18:56:01.525Z,30.00
2022-08-03T18:58:48.554Z,29.90
2022-08-03T19:02:01.069Z,29.70
2022-08-03T19:04:41.322Z,29.50
2022-08-03T19:07:17.128Z,29.40
2022-08-03T19:09:54.281Z,29.20
2022-08-03T19:12:40.394Z,29.10
2022-08-03T19:15:12.808Z,29.00
2022-08-03T19:17:52.966Z,28.80
2022-08-03T19:20:25.010Z,28.80
2022-08-03T19:22:53.607Z,28.70
2022-08-03T19:25:20.413Z,28.60
2022-08-03T19:28:04.052Z,28.60
2022-08-03T19:30:35.872Z,28.50
2022-08-03T19:33:12.094Z,28.40
2022-08-03T19:35:51.854Z,28.30
2022-08-03T19:38:28.608Z,28.20
2022-08-03T19:40:59.565Z,28.00
2022-08-03T19:43:53.533Z,27.90
2022-08-03T19:46:22.848Z,27.80
2022-08-03T19:49:02.970Z,27.60
2022-08-03T19:52:00.862Z,27.50
2022-08-03T19:54:29.643Z,27.40
2022-08-03T19:57:01.911Z,27.20
2022-08-03T19:59:29.468Z,27.10
2022-08-03T20:01:56.401Z,27.00
2022-08-03T20:04:23.214Z,26.90
2022-08-03T20:06:52.133Z,26.80
2022-08-03T20:09:20.023Z,26.70
2022-08-03T20:11:48.023Z,26.60
2022-08-03T20:14:20.684Z,26.50
2022-08-03T20:16:53.627Z,26.40
2022-08-03T20:19:20.505Z,26.40
2022-08-03T20:21:49.692Z,26.20
2022-08-03T20:24:26.840Z,26.10
2022-08-03T20:26:56.574Z,26.10
2022-08-03T20:30:04.890Z,26.00
2022-08-03T20:32:23.501Z,25.90
2022-08-03T20:34:52.192Z,25.80
2022-08-03T20:37:19.858Z,25.80
2022-08-03T20:39:48.339Z,25.70
2022-08-03T20:42:21.787Z,25.60
2022-08-03T20:45:06.149Z,25.60
2022-08-03T20:47:36.600Z,25.50
2022-08-03T20:50:09.452Z,25.50
2022-08-03T20:52:49.394Z,25.50
2022-08-03T20:55:18.574Z,25.40
2022-08-03T20:57:49.251Z,25.40
2022-08-03T21:00:19.397Z,25.30
2022-08-03T21:02:48.775Z,25.30
2022-08-03T21:05:15.439Z,25.20
2022-08-03T21:08:06.198Z,25.20
2022-08-03T21:10:37.929Z,25.10
2022-08-03T21:13:23.517Z,25.10
2022-08-03T21:16:06.493Z,25.00
2022-08-03T21:18:45.884Z,24.90
2022-08-03T21:21:15.915Z,24.90
2022-08-03T21:23:48.839Z,24.80
2022-08-03T21:26:18.232Z,24.80
2022-08-03T21:28:49.750Z,24.80
2022-08-03T21:31:25.098Z,24.70
2022-08-03T21:33:57.530Z,24.70
2022-08-03T21:36:26.819Z,24.60
2022-08-03T21:38:56.589Z,24.60
2022-08-03T21:41:29.077Z,24.60
2022-08-03T21:43:56.073Z,24.60
2022-08-03T21:46:23.339Z,24.50
2022-08-03T21:48:56.570Z,24.50
2022-08-03T21:51:43.225Z,24.50
2022-08-03T21:54:10.770Z,24.40
2022-08-03T21:56:41.847Z,24.30
2022-08-03T21:59:15.556Z,24.30
2022-08-03T22:01:45.393Z,24.20
2022-08-03T22:04:53.241Z,24.20
2022-08-03T22:07:01.939Z,24.10
2022-08-03T22:09:29.350Z,24.10
2022-08-03T22:11:55.988Z,24.10
2022-08-03T22:14:22.751Z,24.00
2022-08-03T22:16:49.484Z,24.00
2022-08-03T22:19:16.050Z,24.00
2022-08-03T22:21:46.807Z,23.90
2022-08-03T22:24:15.440Z,24.00
2022-08-03T22:27:03.923Z,24.00
2022-08-03T22:29:33.378Z,23.90
2022-08-03T22:32:00.500Z,23.90
2022-08-03T22:34:28.322Z,23.90
2022-08-03T22:37:00.184Z,23.90
2022-08-03T22:39:28.850Z,23.90
2022-08-03T22:41:58.766Z,23.80
2022-08-03T22:44:27.190Z,23.80
2022-08-03T22:46:53.995Z,23.80
2022-08-03T22:49:21.616Z,23.70
2022-08-03T22:51:51.554Z,23.70
2022-08-03T22:54:18.346Z,23.60
2022-08-03T22:56:46.829Z,23.60
2022-08-03T22:59:40.370Z,23.60
2022-08-03T23:02:20.253Z,23.60
2022-08-03T23:05:00.663Z,23.60
2022-08-03T23:07:28.423Z,23.50
2022-08-03T23:09:57.724Z,23.50
2022-08-03T23:12:25.103Z,23.50
2022-08-03T23:14:55.225Z,23.40
2022-08-03T23:17:23.840Z,23.40
2022-08-03T23:19:52.641Z,23.30
2022-08-03T23:22:30.009Z,23.30
2022-08-03T23:24:58.834Z,23.20
2022-08-03T23:27:27.373Z,23.20
2022-08-03T23:29:54.152Z,23.20
2022-08-03T23:32:21.291Z,23.20
2022-08-03T23:35:08.362Z,23.10
2022-08-03T23:38:04.797Z,23.10
2022-08-03T23:40:24.826Z,23.10
2022-08-03T23:42:52.206Z,23.10
2022-08-03T23:45:20.229Z,23.10
2022-08-03T23:47:47.919Z,23.10
2022-08-03T23:50:15.176Z,23.10
2022-08-03T23:53:05.895Z,23.10
2022-08-03T23:56:03.201Z,23.00
2022-08-03T23:58:51.436Z,23.00
